Time;durP1;ratioP1;P1;durP2;ratioP2;P2;SDS_P1;SDS_P2;PMS_P1;PMS_P2;Temp;Humidity;BMP_temperature;BMP_pressure;BME280_temperature;BME280_humidity;BME280_pressure;Samples;Min_cycle;Max_cycle;Signal;HPM_P1;HPM_P2
2021/09/11 00:02:12;;;;;;;66.93;26.52;;;;;;;13.04;80.15;100098.78;4923207;29;20042;-79
2021/09/11 00:04:39;;;;;;;58.38;27.05;;;;;;;12.99;80.60;100100.97;4921529;28;20046;-81
2021/09/11 00:07:05;;;;;;;61.38;26.73;;;;;;;12.95;80.81;100111.81;4993725;28;20057;-83
2021/09/11 00:09:30;;;;;;;63.97;26.40;;;;;;;12.94;80.71;100109.31;4994114;28;20034;-83
2021/09/11 00:11:56;;;;;;;60.65;25.63;;;;;;;12.92;80.86;100106.78;4978047;28;20050;-80
2021/09/11 00:14:22;;;;;;;59.72;23.48;;;;;;;12.91;80.88;100106.88;4977487;28;20049;-80
2021/09/11 00:16:48;;;;;;;62.58;24.33;;;;;;;12.93;80.79;100102.31;4961514;28;20081;-82
2021/09/11 00:19:14;;;;;;;77.13;25.40;;;;;;;12.93;80.04;100103.16;4961427;28;20038;-85
2021/09/11 00:21:40;;;;;;;68.47;24.08;;;;;;;12.97;79.88;100106.38;4977924;28;20057;-81
2021/09/11 00:24:06;;;;;;;52.53;22.75;;;;;;;12.97;79.59;100106.38;4977039;28;20042;-82
2021/09/11 00:26:32;;;;;;;54.92;23.52;;;;;;;12.98;78.99;100104.59;4994335;28;20034;-83
2021/09/11 00:28:58;;;;;;;57.85;23.63;;;;;;;13.00;78.91;100108.81;4977610;28;20561;-85
2021/09/11 00:31:23;;;;;;;56.55;24.10;;;;;;;13.01;78.82;100105.19;4978071;28;20558;-80
2021/09/11 00:33:49;;;;;;;61.95;23.67;;;;;;;13.00;78.81;100108.81;4994449;28;20042;-82
2021/09/11 00:36:15;;;;;;;62.30;23.85;;;;;;;12.98;79.23;100110.75;4994920;28;20137;-81
2021/09/11 00:38:41;;;;;;;50.10;23.20;;;;;;;12.90;79.14;100118.50;4994670;28;20047;-80
2021/09/11 00:41:06;;;;;;;53.42;24.20;;;;;;;12.87;79.22;100113.41;4977121;28;20411;-83
2021/09/11 00:43:34;;;;;;;54.05;25.02;;;;;;;12.82;79.43;100112.94;4977001;28;20042;-82
2021/09/11 00:46:01;;;;;;;;;;;;;;;12.74;79.51;100113.56;4977726;28;20085;-83
2021/09/11 00:48:27;;;;;;;51.60;23.77;;;;;;;12.70;79.50;100107.63;4975727;28;19917;-80
2021/09/11 00:50:53;;;;;;;46.50;21.77;;;;;;;12.66;79.63;100116.81;4959920;28;20454;-81
2021/09/11 00:53:20;;;;;;;51.00;22.23;;;;;;;12.71;79.72;100119.09;4993266;28;20054;-82
2021/09/11 00:55:47;;;;;;;56.40;23.95;;;;;;;12.70;79.71;100118.25;4975328;28;20384;-81
2021/09/11 00:58:13;;;;;;;69.57;25.60;;;;;;;12.67;79.57;100115.81;4993970;28;20484;-83
2021/09/11 01:00:38;;;;;;;63.15;24.63;;;;;;;12.65;79.56;100116.91;4976379;28;20173;-82
2021/09/11 01:03:04;;;;;;;67.32;25.58;;;;;;;12.65;79.63;100120.44;4977352;28;20522;-80
2021/09/11 01:05:31;;;;;;;70.20;25.40;;;;;;;12.67;79.56;100118.47;4977606;28;20061;-79
2021/09/11 01:07:57;;;;;;;59.80;21.80;;;;;;;12.66;79.71;100122.13;4978143;28;20034;-84
2021/09/11 01:10:23;;;;;;;47.58;21.45;;;;;;;12.67;79.34;100113.16;4977515;28;20041;-81
2021/09/11 01:12:49;;;;;;;63.22;24.45;;;;;;;12.61;79.21;100114.53;4976077;28;20043;-82
2021/09/11 01:15:16;;;;;;;51.03;21.63;;;;;;;12.56;79.68;100111.38;4959300;28;20073;-81
2021/09/11 01:17:45;;;;;;;41.08;20.60;;;;;;;12.49;79.85;100125.25;4976012;28;20108;-81
2021/09/11 01:20:11;;;;;;;49.35;23.05;;;;;;;12.44;80.03;100123.78;4993469;28;20569;-79
2021/09/11 01:22:37;;;;;;;53.63;22.58;;;;;;;12.42;80.19;100125.72;4993043;28;20407;-80
2021/09/11 01:25:05;;;;;;;48.80;22.58;;;;;;;12.38;80.14;100134.03;4959806;28;20046;-79
2021/09/11 01:27:31;;;;;;;49.78;22.75;;;;;;;12.34;80.36;100133.44;4993304;28;20046;-81
2021/09/11 01:30:04;;;;;;;41.10;20.38;;;;;;;12.33;80.36;100129.09;4992374;28;20049;-79
2021/09/11 01:32:31;;;;;;;42.83;21.13;;;;;;;12.35;80.06;100126.31;4993291;28;20046;-80
2021/09/11 01:34:57;;;;;;;53.20;23.17;;;;;;;12.34;80.08;100116.69;4986632;28;20137;-82
2021/09/11 01:37:23;;;;;;;49.40;22.33;;;;;;;12.34;79.83;100117.50;4956406;28;20289;-80
2021/09/11 01:39:49;;;;;;;50.22;21.33;;;;;;;12.34;79.93;100125.47;4928282;28;20510;-80
2021/09/11 01:42:27;;;;;;;62.28;22.88;;;;;;;12.33;79.80;100128.25;4956460;28;20038;-81
2021/09/11 01:44:58;;;;;;;50.05;22.85;;;;;;;12.32;79.96;100129.22;4956967;28;20055;-80
2021/09/11 01:47:25;;;;;;;49.58;21.45;;;;;;;12.33;80.15;100131.72;4992992;28;20196;-79
2021/09/11 01:49:51;;;;;;;52.35;21.95;;;;;;;12.35;79.74;100135.13;4975231;28;20042;-79
2021/09/11 01:52:17;;;;;;;126.43;53.08;;;;;;;12.29;80.26;100133.78;4991867;28;20045;-78
2021/09/11 01:54:43;;;;;;;51.50;21.25;;;;;;;12.39;80.10;100130.44;4976043;28;20396;-82
2021/09/11 01:57:10;;;;;;;53.53;21.42;;;;;;;12.42;79.79;100131.03;4971877;28;20070;-80
2021/09/11 01:59:36;;;;;;;50.17;21.30;;;;;;;12.51;79.52;100136.56;4952373;29;20043;-80
2021/09/11 02:02:04;;;;;;;41.70;19.77;;;;;;;12.64;79.16;100137.31;4967497;28;20042;-80
2021/09/11 02:04:30;;;;;;;36.60;18.75;;;;;;;12.75;78.81;100137.31;4970714;28;20062;-82
2021/09/11 02:06:56;;;;;;;41.55;19.45;;;;;;;12.68;77.99;100140.56;4947526;28;20129;-79
2021/09/11 02:09:22;;;;;;;38.85;17.50;;;;;;;12.59;77.98;100132.34;4971542;28;20475;-78
2021/09/11 02:11:47;;;;;;;39.90;19.08;;;;;;;12.49;78.23;100142.00;4957113;28;20435;-85
2021/09/11 02:14:13;;;;;;;41.40;18.75;;;;;;;12.41;78.48;100139.97;4975194;28;20121;-82
2021/09/11 02:16:39;;;;;;;43.08;18.55;;;;;;;12.46;78.73;100142.22;4972055;28;20042;-84
2021/09/11 02:19:05;;;;;;;37.55;18.65;;;;;;;12.45;78.79;100136.09;4973554;28;20050;-83
2021/09/11 02:21:31;;;;;;;41.88;17.45;;;;;;;12.44;78.54;100138.88;4955825;28;20656;-78
2021/09/11 02:23:56;;;;;;;43.20;18.77;;;;;;;12.38;78.50;100136.69;4969393;28;20428;-80
2021/09/11 02:26:22;;;;;;;40.63;18.58;;;;;;;12.36;78.84;100135.97;4971377;28;20043;-78
2021/09/11 02:28:48;;;;;;;44.45;17.20;;;;;;;12.41;78.60;100128.47;4972469;28;20039;-79
2021/09/11 02:31:14;;;;;;;41.92;18.50;;;;;;;12.40;78.53;100142.69;4972472;28;20552;-79
2021/09/11 02:33:43;;;;;;;35.28;17.80;;;;;;;12.40;78.40;100143.56;4970660;28;20089;-77
2021/09/11 02:36:09;;;;;;;38.70;18.45;;;;;;;12.38;78.62;100144.66;4971547;28;20038;-77
2021/09/11 02:38:34;;;;;;;37.70;18.08;;;;;;;12.37;78.46;100143.78;4971802;28;20043;-81
2021/09/11 02:41:00;;;;;;;34.75;16.95;;;;;;;12.26;78.64;100146.44;4972753;28;20452;-80
2021/09/11 02:43:26;;;;;;;37.50;17.98;;;;;;;12.27;79.08;100141.03;4971246;28;20046;-78
2021/09/11 02:45:52;;;;;;;32.33;17.65;;;;;;;12.25;79.16;100139.44;4972320;28;20462;-77
2021/09/11 02:48:17;;;;;;;32.50;17.38;;;;;;;12.22;78.98;100142.31;4972596;28;20046;-79
2021/09/11 02:50:44;;;;;;;31.58;18.17;;;;;;;12.17;79.24;100131.22;4971018;28;20436;-80
2021/09/11 02:53:10;;;;;;;39.17;18.95;;;;;;;12.07;79.89;100129.25;4971899;28;20100;-81
2021/09/11 02:55:37;;;;;;;31.33;18.65;;;;;;;11.87;80.46;100130.75;4986554;28;20039;-78
2021/09/11 02:58:02;;;;;;;35.67;20.30;;;;;;;11.73;81.06;100126.47;4971450;28;20141;-78
2021/09/11 03:00:28;;;;;;;38.97;19.25;;;;;;;11.61;81.71;100130.91;4971746;28;20518;-84
2021/09/11 03:02:54;;;;;;;38.05;19.27;;;;;;;11.55;82.24;100128.72;4971036;28;20046;-79
2021/09/11 03:05:20;;;;;;;34.08;19.05;;;;;;;11.45;82.36;100131.19;4987083;28;20050;-80
2021/09/11 03:07:45;;;;;;;41.45;20.15;;;;;;;11.38;83.07;100124.66;4970626;28;20597;-81
2021/09/11 03:10:11;;;;;;;42.00;20.25;;;;;;;11.30;83.36;100121.69;4972079;28;20042;-79
2021/09/11 03:12:37;;;;;;;39.83;20.30;;;;;;;11.26;83.30;100120.25;4972107;28;20050;-82
2021/09/11 03:15:04;;;;;;;40.38;19.63;;;;;;;11.24;83.79;100122.16;4971169;28;20835;-81
2021/09/11 03:17:30;;;;;;;40.20;21.33;;;;;;;11.21;83.88;100122.38;4971989;28;20046;-79
2021/09/11 03:19:56;;;;;;;38.53;19.45;;;;;;;11.20;84.49;100121.53;4971381;28;20071;-79
2021/09/11 03:22:22;;;;;;;42.50;21.10;;;;;;;11.20;84.31;100131.28;4973159;28;20070;-80
2021/09/11 03:24:48;;;;;;;38.20;19.58;;;;;;;11.19;84.45;100129.59;4970678;28;20062;-79
2021/09/11 03:27:14;;;;;;;37.85;18.98;;;;;;;11.20;84.58;100126.00;4972019;28;20101;-79
2021/09/11 03:29:40;;;;;;;41.67;19.25;;;;;;;11.22;84.33;100126.72;4954835;28;20031;-79
2021/09/11 03:32:06;;;;;;;42.47;19.95;;;;;;;11.24;84.46;100127.44;4964573;28;20424;-80
2021/09/11 03:34:32;;;;;;;36.58;20.00;;;;;;;11.26;83.99;100136.13;4959319;28;20035;-80
2021/09/11 03:36:58;;;;;;;35.25;19.83;;;;;;;11.29;83.89;100127.94;4975420;28;20061;-81
2021/09/11 03:39:24;;;;;;;37.00;18.02;;;;;;;11.33;84.28;100138.22;4976229;28;20038;-81
2021/09/11 03:41:49;;;;;;;38.08;18.35;;;;;;;11.38;83.82;100132.59;4977282;28;20515;-81
2021/09/11 03:44:15;;;;;;;37.63;18.75;;;;;;;11.63;83.81;100134.28;4976957;28;20084;-80
2021/09/11 03:46:41;;;;;;;30.80;16.35;;;;;;;12.48;81.20;100118.25;4979474;28;20050;-79
2021/09/11 03:49:07;;;;;;;31.63;15.52;;;;;;;13.11;78.01;100122.06;4982608;28;20041;-80
2021/09/11 03:51:34;;;;;;;28.60;16.50;;;;;;;13.33;76.49;100125.63;4982025;28;20436;-79
2021/09/11 03:54:01;;;;;;;28.55;14.55;;;;;;;14.14;73.80;100132.34;4946670;29;20404;-82
2021/09/11 03:56:27;;;;;;;26.10;13.95;;;;;;;14.91;70.61;100122.22;4967008;28;20137;-79
2021/09/11 03:58:53;;;;;;;23.77;13.43;;;;;;;15.42;67.93;100139.03;4996969;28;20042;-81
2021/09/11 04:01:19;;;;;;;23.90;13.77;;;;;;;16.07;65.87;100139.31;4945862;28;20064;-85
2021/09/11 04:03:44;;;;;;;22.42;12.40;;;;;;;16.69;63.72;100124.72;4994021;28;20038;-78
2021/09/11 04:06:11;;;;;;;21.70;12.60;;;;;;;17.23;61.51;100133.72;4995187;28;20034;-81
2021/09/11 04:08:38;;;;;;;21.47;12.47;;;;;;;17.95;59.33;100128.41;4903525;29;20056;-82
2021/09/11 04:11:04;;;;;;;24.48;13.10;;;;;;;18.44;57.75;100124.38;4918716;29;20294;-81
2021/09/11 04:13:35;;;;;;;23.63;14.05;;;;;;;19.23;55.19;100132.31;4918328;29;20055;-81
2021/09/11 04:16:02;;;;;;;24.92;12.98;;;;;;;19.58;53.51;100129.50;4915876;29;20485;-80
2021/09/11 04:18:28;;;;;;;19.13;11.75;;;;;;;19.74;52.87;100134.91;4916542;29;20139;-79
2021/09/11 04:20:54;;;;;;;21.60;11.48;;;;;;;20.43;51.33;100131.84;4919245;29;20130;-82
2021/09/11 04:23:19;;;;;;;22.08;10.25;;;;;;;20.90;50.05;100123.97;4934168;29;20047;-82
2021/09/11 04:25:45;;;;;;;20.08;11.27;;;;;;;21.26;48.43;100134.22;4902548;29;20622;-81
2021/09/11 04:28:23;;;;;;;19.52;12.55;;;;;;;21.55;47.68;100124.66;4885267;29;20196;-82
2021/09/11 04:31:33;;;;;;;18.67;11.13;;;;;;;21.35;47.91;100135.88;4914453;29;20132;-82
2021/09/11 04:33:59;;;;;;;18.02;12.60;;;;;;;21.62;47.38;100133.69;4934547;29;20140;-83
2021/09/11 04:36:25;;;;;;;25.45;12.25;;;;;;;20.02;49.87;100140.78;4903359;29;20044;-79
2021/09/11 04:38:52;;;;;;;;;;;;;;;19.14;51.77;100134.13;4929144;28;20834;-80
2021/09/11 04:41:18;;;;;;;20.30;11.50;;;;;;;18.82;53.53;100138.31;4974205;28;19964;-83
2021/09/11 04:43:44;;;;;;;19.30;11.65;;;;;;;18.46;54.24;100133.13;4945582;28;20046;-83
2021/09/11 04:46:10;;;;;;;15.98;10.80;;;;;;;18.53;54.28;100136.84;4962952;28;20078;-83
2021/09/11 04:48:35;;;;;;;20.25;10.85;;;;;;;18.25;55.05;100128.94;4994410;28;20042;-81
2021/09/11 04:51:01;;;;;;;19.75;11.30;;;;;;;17.92;55.81;100128.69;4978507;28;20047;-81
2021/09/11 04:53:28;;;;;;;18.70;11.00;;;;;;;17.65;56.75;100132.31;4977633;28;20467;-84
2021/09/11 04:55:54;;;;;;;17.98;10.88;;;;;;;17.48;57.47;100130.47;4924920;28;20054;-80
2021/09/11 04:58:21;;;;;;;16.60;10.68;;;;;;;17.48;57.38;100133.97;4978848;28;20033;-89
2021/09/11 05:00:58;;;;;;;17.90;10.87;;;;;;;17.18;58.21;100127.97;4962006;28;20094;-86
2021/09/11 05:03:26;;;;;;;17.83;10.47;;;;;;;18.24;56.32;100127.31;4983902;28;20033;-86
2021/09/11 05:05:54;;;;;;;15.73;9.30;;;;;;;20.17;51.63;100130.19;4984765;28;20042;-81
2021/09/11 05:08:21;;;;;;;;;;;;;;;21.40;47.73;100120.03;4978792;28;20045;-87
2021/09/11 05:10:48;;;;;;;18.08;9.85;;;;;;;21.90;46.14;100125.06;4955534;28;19924;-85
2021/09/11 05:13:15;;;;;;;20.65;9.98;;;;;;;22.67;45.31;100126.69;4915960;29;20071;-81
2021/09/11 05:15:41;;;;;;;18.10;9.48;;;;;;;22.69;44.18;100119.25;4903512;29;20092;-81
2021/09/11 05:18:07;;;;;;;13.18;8.48;;;;;;;23.38;42.82;100117.19;4918145;29;20071;-83
2021/09/11 05:20:33;;;;;;;14.60;8.60;;;;;;;23.63;41.99;100114.09;4939864;29;20050;-83
2021/09/11 05:22:59;;;;;;;13.70;8.35;;;;;;;23.53;41.67;100114.44;4939708;29;20053;-86
2021/09/11 05:25:25;;;;;;;13.80;8.63;;;;;;;23.87;41.58;100115.56;4934745;29;20130;-82
2021/09/11 05:27:50;;;;;;;15.95;8.35;;;;;;;23.99;41.31;100114.03;4934308;29;20130;-84
2021/09/11 05:30:18;;;;;;;12.20;8.15;;;;;;;24.24;40.11;100113.59;4952657;28;20564;-84
2021/09/11 05:32:44;;;;;;;14.38;7.50;;;;;;;24.34;40.23;100111.38;4920541;29;20050;-82
2021/09/11 05:35:10;;;;;;;20.58;7.88;;;;;;;22.90;42.59;100109.53;4935125;29;20505;-83
2021/09/11 05:37:37;;;;;;;15.85;7.90;;;;;;;22.09;44.32;100113.81;4928487;28;20392;-82
2021/09/11 05:40:04;;;;;;;19.45;7.63;;;;;;;21.38;45.89;100111.28;4957481;28;20042;-80
2021/09/11 05:42:30;;;;;;;22.10;8.30;;;;;;;21.92;45.59;100117.63;4922486;28;20039;-81
2021/09/11 05:44:59;;;;;;;11.75;7.45;;;;;;;22.88;43.18;100111.59;4946824;28;20070;-82
2021/09/11 05:47:25;;;;;;;12.00;7.03;;;;;;;23.05;42.37;100123.00;4939458;28;20492;-82
2021/09/11 05:49:51;;;;;;;15.10;7.20;;;;;;;22.84;42.46;100113.00;4956503;28;20423;-85
2021/09/11 05:52:17;;;;;;;13.38;7.57;;;;;;;22.37;43.70;100121.28;4927137;28;20065;-84
2021/09/11 05:54:43;;;;;;;14.13;7.70;;;;;;;23.46;41.73;100113.53;4967561;28;20034;-82
2021/09/11 05:57:11;;;;;;;11.73;7.43;;;;;;;24.76;38.44;100110.59;4979249;28;20128;-84
2021/09/11 05:59:36;;;;;;;16.77;7.68;;;;;;;24.95;38.83;100112.56;4977130;28;20061;-78
2021/09/11 06:02:02;;;;;;;13.50;7.75;;;;;;;25.89;36.87;100098.38;4976984;28;20073;-80
2021/09/11 06:04:28;;;;;;;12.50;6.95;;;;;;;25.37;37.70;100111.66;4995633;28;20045;-80
2021/09/11 06:06:55;;;;;;;12.00;7.60;;;;;;;25.34;37.65;100113.69;4963806;28;20419;-84
2021/09/11 06:09:21;;;;;;;14.07;8.23;;;;;;;25.47;37.53;100109.38;4973062;28;20410;-87
2021/09/11 06:11:50;;;;;;;13.27;7.10;;;;;;;25.58;36.93;100110.66;4957791;28;20050;-84
2021/09/11 06:14:18;;;;;;;18.52;7.75;;;;;;;26.22;36.42;100103.81;4968677;28;20049;-85
2021/09/11 06:16:50;;;;;;;17.73;7.47;;;;;;;26.86;34.91;100106.78;4950639;28;20035;-87
2021/09/11 06:19:37;;;;;;;13.55;8.48;;;;;;;24.82;38.48;100107.94;4949837;28;20050;-84
2021/09/11 06:22:04;;;;;;;13.50;8.48;;;;;;;23.40;40.77;100113.28;4991593;28;20035;-84
2021/09/11 06:24:31;;;;;;;13.23;8.15;;;;;;;23.38;41.34;100111.78;4998291;28;20046;-87
2021/09/11 06:26:58;;;;;;;11.38;8.32;;;;;;;22.72;42.55;100118.03;4979882;28;20092;-83
2021/09/11 06:29:24;;;;;;;12.65;8.43;;;;;;;23.13;42.62;100114.81;4964736;28;20067;-85
2021/09/11 06:31:50;;;;;;;31.60;20.27;;;;;;;22.09;43.81;100115.63;4954956;28;20071;-83
2021/09/11 06:34:16;;;;;;;58.78;32.38;;;;;;;22.59;43.74;100107.91;4979082;28;20069;-84
2021/09/11 06:36:47;;;;;;;13.90;9.45;;;;;;;22.61;43.57;100108.56;4982391;28;20034;-84
2021/09/11 06:39:13;;;;;;;15.98;8.85;;;;;;;22.31;43.95;100111.22;4951938;28;20041;-85
2021/09/11 06:41:42;;;;;;;19.77;9.00;;;;;;;22.07;44.67;100123.06;4996659;28;20041;-83
2021/09/11 06:44:10;;;;;;;17.17;8.40;;;;;;;21.88;44.76;100121.72;4947467;28;20058;-84
2021/09/11 06:46:36;;;;;;;14.15;9.38;;;;;;;21.75;45.93;100128.56;4982821;28;20042;-84
2021/09/11 06:49:04;;;;;;;14.95;8.55;;;;;;;22.05;45.26;100120.56;4985934;28;20042;-85
2021/09/11 06:51:32;;;;;;;16.38;9.45;;;;;;;22.38;44.52;100117.56;4944920;28;20049;-85
2021/09/11 06:54:00;;;;;;;18.23;8.23;;;;;;;22.58;44.29;100122.41;4982480;28;20042;-84
2021/09/11 06:56:28;;;;;;;17.02;8.07;;;;;;;22.68;44.11;100111.34;4988680;28;20118;-83
2021/09/11 06:58:54;;;;;;;15.10;8.88;;;;;;;22.15;44.99;100117.59;4967376;28;20488;-83
2021/09/11 07:01:23;;;;;;;16.10;7.65;;;;;;;21.66;46.26;100118.88;4963705;28;20073;-83
2021/09/11 07:03:52;;;;;;;16.70;9.00;;;;;;;21.87;46.14;100120.91;4970628;28;20047;-86
2021/09/11 07:06:21;;;;;;;18.90;9.60;;;;;;;21.88;46.39;100114.50;4969316;28;20435;-83
2021/09/11 07:08:47;;;;;;;22.80;9.48;;;;;;;21.25;47.19;100124.50;4950483;28;20046;-81
2021/09/11 07:11:14;;;;;;;15.50;10.30;;;;;;;21.90;46.88;100125.91;4969843;28;20475;-83
2021/09/11 07:13:41;;;;;;;19.13;9.47;;;;;;;21.97;45.82;100115.25;4967741;28;20038;-85
2021/09/11 07:16:09;;;;;;;18.40;9.93;;;;;;;22.26;45.95;100116.31;4957481;28;20072;-83
2021/09/11 07:18:37;;;;;;;14.93;9.05;;;;;;;22.47;45.26;100121.03;4987552;28;20474;-81
2021/09/11 07:21:07;;;;;;;16.25;9.23;;;;;;;22.58;45.63;100119.69;4951634;28;20081;-86
2021/09/11 07:23:35;;;;;;;20.23;10.57;;;;;;;22.51;45.36;100116.09;4974660;28;20074;-82
2021/09/11 07:26:19;;;;;;;15.23;10.52;;;;;;;22.23;45.92;100119.38;4994156;28;20042;-83
2021/09/11 07:28:46;;;;;;;16.58;8.30;;;;;;;23.39;43.75;100116.16;4966303;28;20066;-83
2021/09/11 07:31:12;;;;;;;17.08;9.05;;;;;;;25.40;39.91;100113.97;4937994;28;20154;-87
2021/09/11 07:33:39;;;;;;;25.88;11.77;;;;;;;25.93;38.47;100111.31;4945810;29;20059;-84
2021/09/11 07:36:06;;;;;;;20.45;10.60;;;;;;;25.50;39.46;100109.00;4922495;29;20069;-87
2021/09/11 07:38:40;;;;;;;12.98;8.20;;;;;;;25.24;39.02;100113.28;4948947;29;20560;-82
2021/09/11 07:41:19;;;;;;;15.93;8.60;;;;;;;26.08;38.03;100105.72;4953863;29;20051;-82
2021/09/11 07:43:45;;;;;;;9.73;6.95;;;;;;;26.46;37.20;100113.13;4919991;29;20083;-81
2021/09/11 07:46:11;;;;;;;15.63;8.23;;;;;;;25.84;38.52;100109.84;4940098;29;20075;-81
2021/09/11 07:48:37;;;;;;;11.20;6.63;;;;;;;25.92;38.21;100101.50;4905928;29;20129;-80
2021/09/11 07:51:03;;;;;;;11.43;6.50;;;;;;;25.39;38.81;100098.75;4907121;29;20973;-80
2021/09/11 07:53:38;;;;;;;13.98;7.28;;;;;;;24.70;39.30;100093.31;4949456;29;20138;-84
2021/09/11 07:56:32;;;;;;;14.50;7.78;;;;;;;23.85;40.95;100096.88;4887516;29;20060;-82
2021/09/11 07:58:59;;;;;;;11.50;7.32;;;;;;;24.47;40.16;100096.28;4885391;29;20109;-83
2021/09/11 08:01:29;;;;;;;14.77;7.00;;;;;;;24.15;40.62;100099.41;4890298;29;20056;-87
2021/09/11 08:03:57;;;;;;;12.23;7.38;;;;;;;23.55;42.02;100088.91;4888098;29;20076;-89
2021/09/11 08:07:09;;;;;;;11.80;8.15;;;;;;;22.69;43.02;100092.28;4879863;29;20067;-87
2021/09/11 08:10:02;;;;;;;15.75;9.50;;;;;;;22.62;43.36;100081.41;4892879;29;20044;-86
2021/09/11 08:12:31;;;;;;;14.70;6.90;;;;;;;21.93;44.97;100087.00;4947898;29;20048;-84
2021/09/11 08:15:09;;;;;;;11.25;6.55;;;;;;;22.08;45.08;100081.63;4931424;29;20284;-85
2021/09/11 08:17:41;;;;;;;19.25;10.30;;;;;;;22.26;44.66;100078.59;4941770;29;20048;-87
2021/09/11 08:20:16;;;;;;;14.45;7.03;;;;;;;21.73;45.66;100079.44;4960254;29;20137;-84
2021/09/11 08:23:41;;;;;;;17.23;9.63;;;;;;;21.46;46.12;100078.13;4954251;29;20040;-87
2021/09/11 08:26:53;;;;;;;11.57;8.10;;;;;;;21.37;47.14;100087.25;4926104;29;20051;-89
2021/09/11 08:29:21;;;;;;;19.83;9.77;;;;;;;21.36;47.12;100086.44;4904906;29;20048;-85
2021/09/11 08:32:18;;;;;;;14.65;6.57;;;;;;;20.87;47.70;100092.09;4887128;29;20088;-87
2021/09/11 08:34:52;;;;;;;11.93;6.53;;;;;;;20.76;48.48;100078.03;4842129;29;20058;-86
2021/09/11 08:37:19;;;;;;;14.98;8.45;;;;;;;20.75;47.84;100088.94;4776139;29;20464;-84
2021/09/11 08:39:48;;;;;;;15.68;8.10;;;;;;;20.71;48.61;100087.59;4820610;29;20122;-85
2021/09/11 08:42:15;;;;;;;9.30;5.35;;;;;;;20.51;48.55;100096.03;4818170;29;20066;-84
2021/09/11 08:45:13;;;;;;;9.27;6.07;;;;;;;20.34;48.95;100093.41;4811432;29;20133;-84
2021/09/11 08:47:46;;;;;;;15.85;7.47;;;;;;;20.10;49.02;100088.94;4848420;29;20057;-84
2021/09/11 08:50:34;;;;;;;13.27;7.70;;;;;;;19.82;50.12;100083.06;4816046;29;20070;-87
2021/09/11 08:53:21;;;;;;;17.23;9.25;;;;;;;19.79;50.11;100094.97;4821087;29;20122;-83
2021/09/11 08:55:54;;;;;;;13.45;8.02;;;;;;;19.47;50.46;100083.22;4848102;29;20563;-83
2021/09/11 08:58:46;;;;;;;16.35;7.00;;;;;;;19.41;51.01;100094.59;4855342;29;20058;-87
2021/09/11 09:01:12;;;;;;;16.35;8.05;;;;;;;19.28;51.83;100079.00;4865624;29;20053;-84
2021/09/11 09:03:48;;;;;;;18.58;8.20;;;;;;;19.29;52.16;100075.31;4849176;29;20053;-82
2021/09/11 09:06:27;;;;;;;16.35;7.38;;;;;;;19.39;51.83;100072.50;4906482;29;20055;-83
2021/09/11 09:09:24;;;;;;;15.05;8.63;;;;;;;19.18;52.38;100076.47;4890293;29;20182;-84
2021/09/11 09:12:10;;;;;;;12.05;7.70;;;;;;;19.07;52.91;100076.78;4927491;29;20052;-83
2021/09/11 09:15:28;;;;;;;22.33;10.18;;;;;;;19.23;53.08;100074.13;4928742;29;20044;-83
2021/09/11 09:18:03;;;;;;;14.57;7.03;;;;;;;19.09;52.83;100080.16;4928568;29;20083;-82
2021/09/11 09:20:48;;;;;;;14.73;8.77;;;;;;;19.20;52.98;100074.47;4906105;29;20560;-84
2021/09/11 09:23:47;;;;;;;15.75;7.93;;;;;;;19.00;53.52;100065.88;4933186;29;20047;-82
2021/09/11 09:27:02;;;;;;;8.80;5.55;;;;;;;18.71;53.89;100067.09;4918930;29;20119;-85
2021/09/11 09:29:48;;;;;;;11.80;6.60;;;;;;;18.56;54.16;100060.69;4908994;29;20044;-86
2021/09/11 09:32:15;;;;;;;12.10;7.13;;;;;;;18.56;54.43;100066.84;4891805;29;20056;-87
2021/09/11 09:34:47;;;;;;;11.48;7.35;;;;;;;18.66;54.67;100061.38;4861045;29;20086;-81
2021/09/11 09:37:20;;;;;;;15.33;8.60;;;;;;;18.62;53.77;100064.53;4911378;29;20060;-83
2021/09/11 09:39:49;;;;;;;14.98;9.82;;;;;;;18.59;53.52;100066.56;4885834;29;20067;-83
2021/09/11 09:42:18;;;;;;;19.05;9.27;;;;;;;18.47;53.43;100062.47;4869896;29;20088;-81
2021/09/11 09:44:51;;;;;;;20.88;8.98;;;;;;;18.36;53.17;100065.44;4874525;29;20076;-86
2021/09/11 09:47:19;;;;;;;20.63;9.00;;;;;;;18.36;53.54;100065.44;4900798;29;20132;-81
2021/09/11 09:50:17;;;;;;;11.73;5.80;;;;;;;18.42;53.05;100054.91;4900434;29;20080;-81
2021/09/11 09:52:42;;;;;;;;;;;;;;;18.38;53.23;100058.91;4883624;29;20045;-81
2021/09/11 09:55:09;;;;;;;9.00;5.70;;;;;;;18.20;54.15;100050.94;4901227;29;19979;-83
2021/09/11 09:57:42;;;;;;;101.47;47.90;;;;;;;17.90;55.22;100054.91;4902126;29;20159;-83
2021/09/11 10:00:13;;;;;;;11.25;5.97;;;;;;;17.81;55.53;100051.34;4871916;29;20478;-85
2021/09/11 10:02:41;;;;;;;14.63;6.95;;;;;;;17.68;55.97;100045.56;4867116;29;20053;-83
2021/09/11 10:05:17;;;;;;;9.45;5.90;;;;;;;17.82;55.96;100045.00;4886432;29;20120;-82
2021/09/11 10:08:01;;;;;;;12.07;5.78;;;;;;;17.93;56.03;100044.75;4920408;29;20083;-85
2021/09/11 10:10:32;;;;;;;9.73;5.65;;;;;;;17.92;55.92;100044.91;4925386;29;20554;-81
2021/09/11 10:13:23;;;;;;;11.32;6.30;;;;;;;18.15;55.97;100039.88;4923513;29;20050;-83
2021/09/11 10:16:02;;;;;;;13.85;5.75;;;;;;;18.18;56.10;100031.53;4912055;29;20043;-81
2021/09/11 10:18:32;;;;;;;15.05;8.35;;;;;;;18.33;56.84;100033.59;4944142;28;20035;-81
2021/09/11 10:21:38;;;;;;;7.57;5.60;;;;;;;18.38;55.91;100028.59;4961626;28;20146;-82
2021/09/11 10:24:29;;;;;;;11.20;5.55;;;;;;;18.32;56.19;100021.22;4930643;29;20051;-82
2021/09/11 10:26:59;;;;;;;10.55;6.18;;;;;;;18.31;56.93;100025.75;4883069;29;20141;-80
2021/09/11 10:29:50;;;;;;;42.58;24.05;;;;;;;18.35;57.55;100026.25;4913731;29;20135;-82
2021/09/11 10:32:36;;;;;;;17.15;7.57;;;;;;;18.55;57.56;100025.00;4893355;29;20059;-88
2021/09/11 10:39:14;;;;;;;17.88;8.50;;;;;;;18.73;56.16;100010.69;4882951;29;20082;-85
2021/09/11 10:42:09;;;;;;;12.23;6.57;;;;;;;18.64;56.68;100015.19;4867302;29;20129;-85
2021/09/11 10:44:41;;;;;;;14.75;6.95;;;;;;;18.59;57.01;100012.97;4852784;29;20157;-85
2021/09/11 10:47:19;;;;;;;13.27;7.10;;;;;;;18.72;57.04;100007.13;4822421;29;20067;-87
2021/09/11 10:50:54;;;;;;;14.05;7.43;;;;;;;18.83;56.96;100002.47;4872433;29;20072;-87
2021/09/11 10:53:28;;;;;;;13.70;7.10;;;;;;;18.74;57.12;100005.16;4873349;29;20056;-83
2021/09/11 10:56:30;;;;;;;11.68;7.28;;;;;;;18.57;57.85;100001.56;4807783;29;20128;-84
2021/09/11 10:59:23;;;;;;;16.80;7.22;;;;;;;18.39;58.85;100000.81;4901107;29;20094;-85
2021/09/11 11:02:34;;;;;;;14.73;8.55;;;;;;;18.48;59.00;99994.53;4913914;29;20044;-83
2021/09/11 11:05:21;;;;;;;17.17;8.07;;;;;;;18.56;58.87;99991.84;4913891;29;20074;-86
2021/09/11 11:07:48;;;;;;;19.58;10.13;;;;;;;18.83;58.17;99997.97;4896595;29;22375;-80
2021/09/11 11:10:18;;;;;;;16.38;9.80;;;;;;;18.82;58.27;99995.47;4922756;29;20052;-83
2021/09/11 11:12:51;;;;;;;24.35;12.18;;;;;;;18.91;58.23;99989.94;4882493;29;20053;-83
2021/09/11 11:15:25;;;;;;;15.95;9.45;;;;;;;19.14;57.64;99983.13;4942479;29;20429;-82
2021/09/11 11:17:52;;;;;;;14.68;8.23;;;;;;;19.37;57.13;99978.75;4930993;29;20055;-83
2021/09/11 11:20:27;;;;;;;12.63;7.70;;;;;;;19.37;57.52;99984.13;4908434;29;20504;-85
2021/09/11 11:22:59;;;;;;;14.52;7.80;;;;;;;19.33;58.09;99979.28;4937940;29;20051;-85
2021/09/11 11:25:36;;;;;;;17.55;7.60;;;;;;;19.44;57.94;99973.56;4938953;29;20043;-82
2021/09/11 11:28:08;;;;;;;15.07;8.35;;;;;;;19.24;58.55;99973.91;4926417;29;20051;-84
2021/09/11 11:30:40;;;;;;;17.30;7.78;;;;;;;19.48;58.39;99964.19;4884031;29;20122;-85
2021/09/11 11:33:09;;;;;;;14.88;8.10;;;;;;;19.79;57.85;99949.19;4928676;29;20408;-85
2021/09/11 11:35:50;;;;;;;18.35;8.07;;;;;;;19.75;57.72;99954.09;4926366;29;20054;-81
2021/09/11 11:38:18;;;;;;;15.88;7.03;;;;;;;19.55;58.35;99945.53;4932164;29;20043;-85